aviador You're here:

KOGB Decoded Metar

ORANGEBURG in SC, USA
Report Time2018-05-26 23:53:00
UTC Time2018-05-27 00:52:23
Flight Rules vfr VFR
Wind170° at 08 kt
W.Decomp.*RWY 17: 7.9 kt HW 1.0 kt RCW
RWY 23: 4.8 kt HW 6.4 kt LCW
W.Rank170° ranks 19
Current wind is above 170° avg. (5.6)
Visibility9999 m
Phenomena:N/A
Clouds:Few 025 Hf
Expected CloudBase > 2,000 ft AGL from Temp-Dew spread
CeilingNone
Temp26°C (ISA +11)
Dew Point21°C (74% RH)
QNH1014 hPa
Density Alt1,804 ft
Elevation194 ft
Report Wrong Elevation
Raw Report
METAR KOGB 262353Z AUTO 17008KT 10SM FEW025 26/21 A2993 RMK AO2 SLP131
T02610211 10306 20261 53007=

Extra information for KOGB:More info

Metar Taf Metar & Taf Last 4 Metars F.Rules Stats Wind Profile Meteogram Temp Stats Airport Information Weather charts Add Link Nearby VenuesMetar ALERT Operation Metar Decoded Social comments

AIRNAV info for KOGB